Hanska, Minnesota
Current Conditions -  °F | °C
As of 8:54 PM on Friday 19 Dec 2014 (Local Time) from KULM Reporting Station
Haze Haze  
Wind Chill: -5°   Ceiling: 1500
Heat Index: -1°   Visibility: 3mi
Dew Point: -1°   Wind: 7mph
Humidity: 100%   Direction: 150°SSE
Pressure: 30.13"   Gusts: NA
Location:  44.15°N, 94.49°W
Report Text: KULM 200254Z AUTO 15006KT 3SM BR BKN015 M01/M01 A3013 RMK AO2
Loading
Personal Weather Stations






























Interactive Weather Map New forecast layout! Learn more

10-Day Weather Forecast

Advertisements
Track Severe Weather on mobile